7N0

New Orleans Downtown Heliport

New Orleans, Louisiana, USA
METAR K7N0 151856Z AUTO 23006KT 10SM OVC014 12/08 A3005 RMK AO2 SLP176 T01170078
Observed Flight Rules
Dec-15 @ 18:56 UTC (16 minutes ago) Marginal Visual Flight Rules
Wind Visibility Clouds
230° at 6 knots 10 miles
  • Overcast at 1,400' AGL
Temperatures Readings
Current 12°C / 54°F
Dewpoint 8°C / 46°F
Humidity 77%
Altimeter 30.05" Hg
Pressure 1017.6 hPa
Elevation 0
METAR K7N0 151856Z AUTO 23006KT 10SM OVC014 12/08 A3005 RMK AO2 SLP176 T01170078
Observed Flight Rules
Dec-15 @ 18:56 UTC
(16 minutes ago)
MVFR
Wind Visibility
230° at 6 knots 10 miles
Clouds
  • Overcast at 1,400' AGL
Temperature Dewpoint
12°C / 54°F 8°C / 46°F
Humidity Altimeter Pressure
77% 30.05" Hg 1017.6 hPa